AVA9346 SKRG-SKSP
Flight info
| Callsign | AVA9346 |
|---|---|
| Flight time | 1h 22m |
| Altitude | 36000 |
| Route | KOTIN3A KOTIN UN653 TOSAV TOSAV2A |
| Aircraft | A320/M-SDE3FGHIRWY/LB1 |
Departure
| Time | 2026-04-28 20:15 |
|---|---|
| Airport | Jose Maria Córdova International Airport (SKRG) |
Arrival
| Time | 2026-04-28 21:37 |
|---|---|
| Airport | Gustavo Rojas Pinilla International Airport (SKSP) |
| Time | Latitude | Longitude | Altitude | Speed | Heading |
|---|---|---|---|---|---|
| 2026-04-28 19:56 | 6.16951 | -75.42873 | 7021 ft | 0 kts | 346° |
| 2026-04-28 20:05 | 6.16934 | -75.42869 | 7020 ft | 3 kts | 347° |
| 2026-04-28 20:05 | 6.16913 | -75.42865 | 7019 ft | 4 kts | 15° |
| 2026-04-28 20:05 | 6.16897 | -75.42879 | 7020 ft | 4 kts | 76° |
| 2026-04-28 20:05 | 6.16893 | -75.42899 | 7020 ft | 0 kts | 76° |
| 2026-04-28 20:08 | 6.16894 | -75.42894 | 7017 ft | 4 kts | 76° |
| 2026-04-28 20:08 | 6.16907 | -75.42840 | 7016 ft | 9 kts | 76° |
| 2026-04-28 20:08 | 6.16923 | -75.42785 | 7016 ft | 8 kts | 69° |
| 2026-04-28 20:08 | 6.16959 | -75.42722 | 7017 ft | 13 kts | 52° |
| 2026-04-28 20:09 | 6.17027 | -75.42657 | 7019 ft | 14 kts | 46° |
| 2026-04-28 20:09 | 6.17025 | -75.42580 | 7018 ft | 11 kts | 138° |
| 2026-04-28 20:09 | 6.16958 | -75.42539 | 7018 ft | 12 kts | 150° |
| 2026-04-28 20:09 | 6.16881 | -75.42495 | 7017 ft | 13 kts | 151° |
| 2026-04-28 20:10 | 6.16781 | -75.42485 | 7012 ft | 16 kts | 179° |
| 2026-04-28 20:10 | 6.16659 | -75.42484 | 7007 ft | 20 kts | 179° |
| 2026-04-28 20:10 | 6.16509 | -75.42483 | 6992 ft | 24 kts | 179° |
| 2026-04-28 20:10 | 6.16332 | -75.42482 | 6991 ft | 27 kts | 180° |
| 2026-04-28 20:11 | 6.16140 | -75.42480 | 6986 ft | 28 kts | 179° |
| 2026-04-28 20:11 | 6.15942 | -75.42478 | 6982 ft | 29 kts | 180° |
| 2026-04-28 20:11 | 6.15749 | -75.42477 | 6980 ft | 28 kts | 179° |
| 2026-04-28 20:11 | 6.15555 | -75.42476 | 6979 ft | 27 kts | 180° |
| 2026-04-28 20:12 | 6.15369 | -75.42475 | 6979 ft | 27 kts | 179° |
| 2026-04-28 20:12 | 6.15182 | -75.42474 | 6978 ft | 27 kts | 180° |
| 2026-04-28 20:12 | 6.14998 | -75.42472 | 6977 ft | 22 kts | 180° |
| 2026-04-28 20:12 | 6.14922 | -75.42468 | 6977 ft | 14 kts | 152° |
| 2026-04-28 20:13 | 6.14912 | -75.42348 | 6975 ft | 14 kts | 50° |
| 2026-04-28 20:13 | 6.14952 | -75.42305 | 6977 ft | 7 kts | 21° |
| 2026-04-28 20:13 | 6.14977 | -75.42304 | 6977 ft | 0 kts | 359° |
| 2026-04-28 20:14 | 6.15164 | -75.42306 | 6979 ft | 63 kts | 360° |
| 2026-04-28 20:14 | 6.15840 | -75.42309 | 6980 ft | 128 kts | 359° |
| 2026-04-28 20:14 | 6.16910 | -75.42316 | 7016 ft | 176 kts | 359° |
| 2026-04-28 20:14 | 6.18221 | -75.42317 | 7527 ft | 190 kts | 1° |
| 2026-04-28 20:15 | 6.19537 | -75.42322 | 8257 ft | 189 kts | 1° |
| 2026-04-28 20:15 | 6.20853 | -75.42330 | 8701 ft | 189 kts | 0° |
| 2026-04-28 20:15 | 6.22154 | -75.42341 | 9139 ft | 190 kts | 1° |
| 2026-04-28 20:15 | 6.23478 | -75.42352 | 9605 ft | 190 kts | 0° |
| 2026-04-28 20:16 | 6.24803 | -75.42362 | 10079 ft | 190 kts | 0° |
| 2026-04-28 20:16 | 6.26165 | -75.42372 | 10311 ft | 204 kts | 0° |
| 2026-04-28 20:16 | 6.27647 | -75.42383 | 10432 ft | 223 kts | 0° |
| 2026-04-28 20:16 | 6.29261 | -75.42395 | 10544 ft | 241 kts | 360° |
| 2026-04-28 20:17 | 6.31019 | -75.42405 | 10629 ft | 264 kts | 0° |
| 2026-04-28 20:17 | 6.32943 | -75.42416 | 10594 ft | 288 kts | 0° |
| 2026-04-28 20:17 | 6.35019 | -75.42420 | 10856 ft | 306 kts | 1° |
| 2026-04-28 20:17 | 6.37164 | -75.42405 | 11439 ft | 311 kts | 2° |
| 2026-04-28 20:18 | 6.39341 | -75.42379 | 12079 ft | 314 kts | 1° |
| 2026-04-28 20:18 | 6.40790 | -75.42364 | 12502 ft | 316 kts | 360° |
| 2026-04-28 20:18 | 6.43581 | -75.43233 | 13373 ft | 321 kts | 322° |
| 2026-04-28 20:18 | 6.45133 | -75.44847 | 14030 ft | 323 kts | 306° |
| 2026-04-28 20:19 | 6.45948 | -75.46108 | 14414 ft | 324 kts | 300° |
| 2026-04-28 20:19 | 6.47003 | -75.48133 | 14970 ft | 327 kts | 296° |
| 2026-04-28 20:19 | 6.47971 | -75.50183 | 15503 ft | 330 kts | 295° |
| 2026-04-28 20:19 | 6.48978 | -75.52273 | 15713 ft | 332 kts | 296° |
| 2026-04-28 20:20 | 6.50044 | -75.54345 | 16231 ft | 334 kts | 298° |
| 2026-04-28 20:20 | 6.51096 | -75.56436 | 16807 ft | 336 kts | 289° |
| 2026-04-28 20:20 | 6.51477 | -75.58773 | 17097 ft | 347 kts | 271° |
| 2026-04-28 20:20 | 6.51537 | -75.61261 | 17226 ft | 363 kts | 271° |
| 2026-04-28 20:21 | 6.51602 | -75.63853 | 17353 ft | 378 kts | 271° |
| 2026-04-28 20:21 | 6.51676 | -75.66554 | 17460 ft | 393 kts | 271° |
| 2026-04-28 20:21 | 6.51759 | -75.69351 | 17599 ft | 405 kts | 271° |
| 2026-04-28 20:21 | 6.51845 | -75.72197 | 17950 ft | 410 kts | 271° |
| 2026-04-28 20:22 | 6.51932 | -75.75042 | 18324 ft | 414 kts | 271° |
| 2026-04-28 20:22 | 6.52020 | -75.77948 | 18691 ft | 417 kts | 271° |
| 2026-04-28 20:22 | 6.52106 | -75.80875 | 19065 ft | 419 kts | 271° |
| 2026-04-28 20:22 | 6.52194 | -75.83817 | 19484 ft | 421 kts | 271° |
| 2026-04-28 20:23 | 6.52281 | -75.86773 | 19876 ft | 422 kts | 271° |
| 2026-04-28 20:23 | 6.52368 | -75.89734 | 20251 ft | 425 kts | 271° |
| 2026-04-28 20:23 | 6.52456 | -75.92712 | 20617 ft | 427 kts | 271° |
| 2026-04-28 20:23 | 6.52541 | -75.95707 | 20969 ft | 430 kts | 271° |
| 2026-04-28 20:24 | 6.52626 | -75.98717 | 21340 ft | 432 kts | 271° |
| 2026-04-28 20:24 | 6.52713 | -76.01751 | 21698 ft | 434 kts | 271° |
| 2026-04-28 20:24 | 6.52803 | -76.04790 | 22055 ft | 436 kts | 271° |
| 2026-04-28 20:24 | 6.52897 | -76.07852 | 22390 ft | 439 kts | 271° |
| 2026-04-28 20:25 | 6.52992 | -76.10932 | 22736 ft | 441 kts | 271° |
| 2026-04-28 20:25 | 6.53086 | -76.14026 | 23079 ft | 443 kts | 271° |
| 2026-04-28 20:25 | 6.53238 | -76.17092 | 23384 ft | 446 kts | 276° |
| 2026-04-28 20:25 | 6.53877 | -76.20157 | 23657 ft | 450 kts | 287° |
| 2026-04-28 20:26 | 6.55083 | -76.23071 | 23917 ft | 453 kts | 297° |
| 2026-04-28 20:26 | 6.56828 | -76.25729 | 24184 ft | 456 kts | 309° |
| 2026-04-28 20:26 | 6.59024 | -76.28039 | 24480 ft | 457 kts | 316° |
| 2026-04-28 20:26 | 6.61326 | -76.30249 | 24752 ft | 458 kts | 316° |
| 2026-04-28 20:27 | 6.63627 | -76.32469 | 25031 ft | 459 kts | 315° |
| 2026-04-28 20:27 | 6.65933 | -76.34701 | 25319 ft | 459 kts | 315° |
| 2026-04-28 20:27 | 6.68238 | -76.36935 | 25571 ft | 460 kts | 315° |
| 2026-04-28 20:27 | 6.70547 | -76.39176 | 25851 ft | 461 kts | 315° |
| 2026-04-28 20:28 | 6.72862 | -76.41424 | 26140 ft | 463 kts | 315° |
| 2026-04-28 20:28 | 6.75155 | -76.43643 | 26460 ft | 465 kts | 315° |
| 2026-04-28 20:28 | 6.77486 | -76.45900 | 26788 ft | 466 kts | 315° |
| 2026-04-28 20:28 | 6.79830 | -76.48169 | 27169 ft | 468 kts | 315° |
| 2026-04-28 20:29 | 6.82178 | -76.50442 | 27455 ft | 469 kts | 315° |
| 2026-04-28 20:29 | 6.84533 | -76.52724 | 27710 ft | 469 kts | 314° |
| 2026-04-28 20:29 | 6.86893 | -76.55015 | 27951 ft | 470 kts | 314° |
| 2026-04-28 20:29 | 6.89256 | -76.57309 | 28175 ft | 472 kts | 314° |
| 2026-04-28 20:30 | 6.91623 | -76.59602 | 28408 ft | 473 kts | 314° |
| 2026-04-28 20:30 | 6.93999 | -76.61903 | 28624 ft | 474 kts | 314° |
| 2026-04-28 20:30 | 6.96347 | -76.64179 | 28828 ft | 475 kts | 314° |
| 2026-04-28 20:30 | 6.98737 | -76.66492 | 29040 ft | 476 kts | 314° |
| 2026-04-28 20:31 | 7.01120 | -76.68797 | 29378 ft | 474 kts | 314° |
| 2026-04-28 20:31 | 7.03497 | -76.71098 | 29722 ft | 473 kts | 314° |
| 2026-04-28 20:31 | 7.05869 | -76.73397 | 30029 ft | 472 kts | 314° |
| 2026-04-28 20:31 | 7.08235 | -76.75693 | 30295 ft | 471 kts | 314° |
| 2026-04-28 20:32 | 7.10595 | -76.77983 | 30546 ft | 470 kts | 314° |
| 2026-04-28 20:32 | 7.12949 | -76.80268 | 30787 ft | 470 kts | 314° |
| 2026-04-28 20:32 | 7.15305 | -76.82554 | 31037 ft | 469 kts | 314° |
| 2026-04-28 20:32 | 7.17633 | -76.84810 | 31289 ft | 469 kts | 314° |
| 2026-04-28 20:33 | 7.19983 | -76.87091 | 31545 ft | 468 kts | 314° |
| 2026-04-28 20:33 | 7.22330 | -76.89372 | 31809 ft | 468 kts | 313° |
| 2026-04-28 20:33 | 7.24671 | -76.91649 | 32080 ft | 467 kts | 313° |
| 2026-04-28 20:33 | 7.27010 | -76.93925 | 32351 ft | 467 kts | 313° |
| 2026-04-28 20:34 | 7.29350 | -76.96202 | 32632 ft | 466 kts | 313° |
| 2026-04-28 20:34 | 7.31682 | -76.98467 | 32900 ft | 466 kts | 313° |
| 2026-04-28 20:34 | 7.33992 | -77.00709 | 33173 ft | 465 kts | 313° |
| 2026-04-28 20:34 | 7.36317 | -77.02969 | 33439 ft | 465 kts | 313° |
| 2026-04-28 20:35 | 7.38648 | -77.05232 | 33716 ft | 464 kts | 313° |
| 2026-04-28 20:35 | 7.40970 | -77.07488 | 33963 ft | 464 kts | 313° |
| 2026-04-28 20:35 | 7.43295 | -77.09749 | 34221 ft | 463 kts | 312° |
| 2026-04-28 20:35 | 7.45612 | -77.12005 | 34472 ft | 462 kts | 312° |
| 2026-04-28 20:36 | 7.47926 | -77.14262 | 34715 ft | 461 kts | 312° |
| 2026-04-28 20:36 | 7.50201 | -77.16480 | 34949 ft | 460 kts | 312° |
| 2026-04-28 20:36 | 7.52502 | -77.18723 | 35178 ft | 459 kts | 312° |
| 2026-04-28 20:36 | 7.54803 | -77.20963 | 35405 ft | 459 kts | 312° |
| 2026-04-28 20:37 | 7.57099 | -77.23195 | 35638 ft | 458 kts | 312° |
| 2026-04-28 20:37 | 7.59392 | -77.25425 | 35800 ft | 458 kts | 312° |
| 2026-04-28 20:37 | 7.61689 | -77.27662 | 35843 ft | 458 kts | 312° |
| 2026-04-28 20:38 | 7.66283 | -77.32133 | 35844 ft | 458 kts | 312° |
| 2026-04-28 20:38 | 7.70850 | -77.36575 | 35844 ft | 458 kts | 312° |
| 2026-04-28 20:39 | 7.75395 | -77.41097 | 35850 ft | 457 kts | 309° |
| 2026-04-28 20:39 | 7.79679 | -77.45827 | 35858 ft | 455 kts | 307° |
| 2026-04-28 20:40 | 7.83853 | -77.50619 | 35860 ft | 454 kts | 307° |
| 2026-04-28 20:40 | 7.88072 | -77.55388 | 35867 ft | 454 kts | 308° |
| 2026-04-28 20:41 | 7.92308 | -77.60083 | 35869 ft | 454 kts | 308° |
| 2026-04-28 20:41 | 7.96581 | -77.64804 | 35870 ft | 454 kts | 308° |
| 2026-04-28 20:42 | 8.00811 | -77.69500 | 35871 ft | 453 kts | 308° |
| 2026-04-28 20:42 | 8.05063 | -77.74234 | 35864 ft | 454 kts | 308° |
| 2026-04-28 20:43 | 8.09276 | -77.78930 | 35859 ft | 453 kts | 308° |
| 2026-04-28 20:43 | 8.13534 | -77.83666 | 35858 ft | 454 kts | 308° |
| 2026-04-28 20:44 | 8.17764 | -77.88375 | 35862 ft | 454 kts | 308° |
| 2026-04-28 20:44 | 8.22009 | -77.93102 | 35856 ft | 454 kts | 308° |
| 2026-04-28 20:45 | 8.26227 | -77.97799 | 35861 ft | 454 kts | 308° |
| 2026-04-28 20:45 | 8.30467 | -78.02521 | 35860 ft | 454 kts | 308° |
| 2026-04-28 20:46 | 8.34720 | -78.07255 | 35853 ft | 453 kts | 307° |
| 2026-04-28 20:46 | 8.38936 | -78.11965 | 35856 ft | 453 kts | 307° |
| 2026-04-28 20:47 | 8.43582 | -78.16350 | 35854 ft | 458 kts | 315° |
| 2026-04-28 20:47 | 8.48468 | -78.20445 | 35857 ft | 458 kts | 316° |
| 2026-04-28 20:48 | 8.53387 | -78.24566 | 35857 ft | 458 kts | 315° |
| 2026-04-28 20:48 | 8.58276 | -78.28674 | 35866 ft | 459 kts | 315° |
| 2026-04-28 20:49 | 8.63187 | -78.32803 | 35861 ft | 459 kts | 315° |
| 2026-04-28 20:49 | 8.68091 | -78.36924 | 35859 ft | 459 kts | 315° |
| 2026-04-28 20:50 | 8.73010 | -78.41058 | 35861 ft | 459 kts | 315° |
| 2026-04-28 20:50 | 8.77929 | -78.45188 | 35865 ft | 459 kts | 315° |
| 2026-04-28 20:51 | 8.82818 | -78.49303 | 35865 ft | 459 kts | 315° |
| 2026-04-28 20:51 | 8.87736 | -78.53440 | 35865 ft | 459 kts | 315° |
| 2026-04-28 20:52 | 8.92615 | -78.57550 | 35874 ft | 459 kts | 315° |
| 2026-04-28 20:52 | 8.97528 | -78.61693 | 35872 ft | 458 kts | 315° |
| 2026-04-28 20:53 | 9.04872 | -78.67887 | 35876 ft | 459 kts | 315° |
| 2026-04-28 20:53 | 9.09786 | -78.72029 | 35889 ft | 459 kts | 315° |
| 2026-04-28 20:54 | 9.14692 | -78.76160 | 35886 ft | 459 kts | 315° |
| 2026-04-28 20:54 | 9.19569 | -78.80276 | 35885 ft | 459 kts | 315° |
| 2026-04-28 20:55 | 9.24481 | -78.84424 | 35892 ft | 459 kts | 315° |
| 2026-04-28 20:55 | 9.29399 | -78.88575 | 35895 ft | 459 kts | 315° |
| 2026-04-28 20:56 | 9.34271 | -78.92693 | 35891 ft | 459 kts | 315° |
| 2026-04-28 20:56 | 9.39191 | -78.96859 | 35892 ft | 459 kts | 315° |
| 2026-04-28 20:57 | 9.44101 | -79.01013 | 35892 ft | 459 kts | 315° |
| 2026-04-28 20:57 | 9.48986 | -79.05137 | 35892 ft | 460 kts | 315° |
| 2026-04-28 20:58 | 9.53915 | -79.09301 | 35893 ft | 460 kts | 315° |
| 2026-04-28 20:58 | 9.58809 | -79.13442 | 35894 ft | 460 kts | 315° |
| 2026-04-28 20:59 | 9.63738 | -79.17616 | 35894 ft | 460 kts | 315° |
| 2026-04-28 20:59 | 9.68645 | -79.21769 | 35897 ft | 460 kts | 315° |
| 2026-04-28 21:00 | 9.73546 | -79.25916 | 35892 ft | 461 kts | 315° |
| 2026-04-28 21:00 | 9.78463 | -79.30091 | 35895 ft | 461 kts | 315° |
| 2026-04-28 21:01 | 9.82557 | -79.33568 | 35893 ft | 461 kts | 315° |
| 2026-04-28 21:01 | 9.87500 | -79.37757 | 35891 ft | 461 kts | 315° |
| 2026-04-28 21:02 | 9.92400 | -79.41910 | 35889 ft | 461 kts | 315° |
| 2026-04-28 21:02 | 9.97332 | -79.46101 | 35892 ft | 461 kts | 315° |
| 2026-04-28 21:03 | 10.02253 | -79.50289 | 35892 ft | 461 kts | 315° |
| 2026-04-28 21:03 | 10.07158 | -79.54451 | 35899 ft | 461 kts | 315° |
| 2026-04-28 21:04 | 10.12103 | -79.58637 | 35901 ft | 461 kts | 315° |
| 2026-04-28 21:04 | 10.17001 | -79.62799 | 35900 ft | 461 kts | 315° |
| 2026-04-28 21:05 | 10.21921 | -79.66995 | 35897 ft | 461 kts | 315° |
| 2026-04-28 21:05 | 10.26836 | -79.71185 | 35897 ft | 461 kts | 315° |
| 2026-04-28 21:06 | 10.31732 | -79.75344 | 35900 ft | 461 kts | 315° |
| 2026-04-28 21:06 | 10.36654 | -79.79549 | 35901 ft | 461 kts | 315° |
| 2026-04-28 21:07 | 10.41557 | -79.83730 | 35900 ft | 461 kts | 315° |
| 2026-04-28 21:07 | 10.46460 | -79.87903 | 35899 ft | 461 kts | 315° |
| 2026-04-28 21:08 | 10.51370 | -79.92089 | 35901 ft | 461 kts | 315° |
| 2026-04-28 21:08 | 10.56294 | -79.96300 | 35903 ft | 461 kts | 315° |
| 2026-04-28 21:09 | 10.61183 | -80.00490 | 35902 ft | 461 kts | 315° |
| 2026-04-28 21:09 | 10.66109 | -80.04698 | 35905 ft | 461 kts | 315° |
| 2026-04-28 21:10 | 10.71023 | -80.08893 | 35903 ft | 461 kts | 315° |
| 2026-04-28 21:10 | 10.75900 | -80.13070 | 35903 ft | 461 kts | 315° |
| 2026-04-28 21:11 | 10.80816 | -80.17292 | 35908 ft | 461 kts | 315° |
| 2026-04-28 21:11 | 10.85701 | -80.21487 | 35905 ft | 461 kts | 315° |
| 2026-04-28 21:12 | 10.90620 | -80.25698 | 35903 ft | 461 kts | 315° |
| 2026-04-28 21:12 | 10.95513 | -80.29885 | 35904 ft | 461 kts | 315° |
| 2026-04-28 21:13 | 11.00432 | -80.34105 | 35910 ft | 462 kts | 315° |
| 2026-04-28 21:13 | 11.05349 | -80.38325 | 35909 ft | 462 kts | 315° |
| 2026-04-28 21:14 | 11.10231 | -80.42519 | 35908 ft | 462 kts | 315° |
| 2026-04-28 21:14 | 11.15150 | -80.46746 | 35916 ft | 462 kts | 315° |
| 2026-04-28 21:15 | 11.20067 | -80.50972 | 35917 ft | 462 kts | 315° |
| 2026-04-28 21:15 | 11.24958 | -80.55176 | 35916 ft | 462 kts | 315° |
| 2026-04-28 21:16 | 11.29858 | -80.59392 | 35618 ft | 462 kts | 315° |
| 2026-04-28 21:16 | 11.32318 | -80.61506 | 35390 ft | 462 kts | 315° |
| 2026-04-28 21:16 | 11.34789 | -80.63629 | 35159 ft | 463 kts | 315° |
| 2026-04-28 21:17 | 11.37259 | -80.65756 | 34923 ft | 463 kts | 315° |
| 2026-04-28 21:17 | 11.39696 | -80.67859 | 34693 ft | 464 kts | 315° |
| 2026-04-28 21:17 | 11.42169 | -80.69997 | 34469 ft | 464 kts | 315° |
| 2026-04-28 21:17 | 11.44614 | -80.72108 | 34240 ft | 465 kts | 315° |
| 2026-04-28 21:18 | 11.47088 | -80.74245 | 33994 ft | 465 kts | 315° |
| 2026-04-28 21:18 | 11.49572 | -80.76392 | 32958 ft | 472 kts | 315° |
| 2026-04-28 21:18 | 11.52100 | -80.78577 | 31948 ft | 478 kts | 315° |
| 2026-04-28 21:18 | 11.54660 | -80.80783 | 30934 ft | 484 kts | 316° |
| 2026-04-28 21:19 | 11.57257 | -80.83016 | 29769 ft | 491 kts | 316° |
| 2026-04-28 21:19 | 11.59870 | -80.85266 | 28488 ft | 498 kts | 316° |
| 2026-04-28 21:19 | 11.62516 | -80.87547 | 27780 ft | 492 kts | 316° |
| 2026-04-28 21:19 | 11.65124 | -80.89795 | 27033 ft | 487 kts | 317° |
| 2026-04-28 21:20 | 11.67665 | -80.92008 | 26287 ft | 482 kts | 314° |
| 2026-04-28 21:20 | 11.69904 | -80.94517 | 25524 ft | 474 kts | 304° |
| 2026-04-28 21:20 | 11.71751 | -80.97299 | 24765 ft | 468 kts | 301° |
| 2026-04-28 21:20 | 11.73521 | -81.00033 | 24039 ft | 465 kts | 301° |
| 2026-04-28 21:21 | 11.75303 | -81.02781 | 23281 ft | 462 kts | 301° |
| 2026-04-28 21:21 | 11.77077 | -81.05510 | 22521 ft | 458 kts | 302° |
| 2026-04-28 21:21 | 11.78836 | -81.08213 | 21863 ft | 453 kts | 302° |
| 2026-04-28 21:21 | 11.80575 | -81.10886 | 21222 ft | 447 kts | 302° |
| 2026-04-28 21:22 | 11.82272 | -81.13499 | 20610 ft | 443 kts | 302° |
| 2026-04-28 21:22 | 11.83967 | -81.16107 | 20041 ft | 437 kts | 302° |
| 2026-04-28 21:22 | 11.85645 | -81.18694 | 19476 ft | 432 kts | 302° |
| 2026-04-28 21:22 | 11.86744 | -81.20384 | 19117 ft | 429 kts | 302° |
| 2026-04-28 21:23 | 11.88917 | -81.23729 | 18409 ft | 423 kts | 302° |
| 2026-04-28 21:23 | 11.90535 | -81.26226 | 17921 ft | 417 kts | 302° |
| 2026-04-28 21:23 | 11.92113 | -81.28666 | 17399 ft | 411 kts | 303° |
| 2026-04-28 21:23 | 11.93690 | -81.31108 | 16883 ft | 406 kts | 303° |
| 2026-04-28 21:24 | 11.95220 | -81.33474 | 16362 ft | 402 kts | 303° |
| 2026-04-28 21:24 | 11.96760 | -81.35853 | 15840 ft | 398 kts | 303° |
| 2026-04-28 21:24 | 11.98292 | -81.38216 | 15295 ft | 396 kts | 303° |
| 2026-04-28 21:24 | 11.99798 | -81.40540 | 14769 ft | 394 kts | 303° |
| 2026-04-28 21:25 | 12.01307 | -81.42867 | 14214 ft | 392 kts | 303° |
| 2026-04-28 21:25 | 12.02820 | -81.45200 | 13644 ft | 391 kts | 303° |
| 2026-04-28 21:25 | 12.04303 | -81.47491 | 13045 ft | 389 kts | 303° |
| 2026-04-28 21:25 | 12.05790 | -81.49791 | 12469 ft | 386 kts | 303° |
| 2026-04-28 21:26 | 12.07271 | -81.52081 | 11885 ft | 384 kts | 303° |
| 2026-04-28 21:26 | 12.08746 | -81.54359 | 11295 ft | 382 kts | 303° |
| 2026-04-28 21:26 | 12.10372 | -81.56486 | 10766 ft | 378 kts | 315° |
| 2026-04-28 21:26 | 12.12324 | -81.58207 | 10632 ft | 362 kts | 322° |
| 2026-04-28 21:27 | 12.14235 | -81.59769 | 10515 ft | 349 kts | 322° |
| 2026-04-28 21:27 | 12.16097 | -81.61303 | 10401 ft | 336 kts | 322° |
| 2026-04-28 21:27 | 12.17863 | -81.62764 | 10275 ft | 321 kts | 321° |
| 2026-04-28 21:27 | 12.19562 | -81.64173 | 9917 ft | 308 kts | 322° |
| 2026-04-28 21:28 | 12.21221 | -81.65547 | 9730 ft | 306 kts | 321° |
| 2026-04-28 21:28 | 12.22869 | -81.66909 | 9549 ft | 303 kts | 322° |
| 2026-04-28 21:28 | 12.24497 | -81.68253 | 9189 ft | 302 kts | 323° |
| 2026-04-28 21:28 | 12.26133 | -81.69601 | 8799 ft | 299 kts | 323° |
| 2026-04-28 21:29 | 12.27751 | -81.70932 | 8401 ft | 295 kts | 323° |
| 2026-04-28 21:29 | 12.29332 | -81.72232 | 8013 ft | 293 kts | 322° |
| 2026-04-28 21:29 | 12.30925 | -81.73545 | 7633 ft | 291 kts | 322° |
| 2026-04-28 21:29 | 12.32504 | -81.74845 | 7243 ft | 291 kts | 323° |
| 2026-04-28 21:30 | 12.34069 | -81.76133 | 6860 ft | 290 kts | 323° |
| 2026-04-28 21:30 | 12.35627 | -81.77416 | 6474 ft | 284 kts | 322° |
| 2026-04-28 21:30 | 12.37136 | -81.78662 | 6094 ft | 271 kts | 322° |
| 2026-04-28 21:30 | 12.38574 | -81.79850 | 5733 ft | 260 kts | 324° |
| 2026-04-28 21:31 | 12.39949 | -81.80986 | 5396 ft | 248 kts | 324° |
| 2026-04-28 21:31 | 12.41326 | -81.81989 | 5073 ft | 239 kts | 333° |
| 2026-04-28 21:31 | 12.42740 | -81.82827 | 4745 ft | 236 kts | 334° |
| 2026-04-28 21:31 | 12.44162 | -81.83673 | 4416 ft | 237 kts | 332° |
| 2026-04-28 21:32 | 12.45587 | -81.84519 | 4082 ft | 236 kts | 333° |
| 2026-04-28 21:32 | 12.47016 | -81.85370 | 3758 ft | 238 kts | 332° |
| 2026-04-28 21:32 | 12.48518 | -81.86034 | 3405 ft | 230 kts | 357° |
| 2026-04-28 21:32 | 12.49992 | -81.85682 | 3101 ft | 215 kts | 38° |
| 2026-04-28 21:33 | 12.50937 | -81.84579 | 2820 ft | 205 kts | 57° |
| 2026-04-28 21:33 | 12.51645 | -81.83332 | 2546 ft | 199 kts | 61° |
| 2026-04-28 21:33 | 12.52286 | -81.82097 | 2281 ft | 192 kts | 60° |
| 2026-04-28 21:33 | 12.52897 | -81.80928 | 2026 ft | 180 kts | 60° |
| 2026-04-28 21:34 | 12.53476 | -81.79848 | 1785 ft | 165 kts | 61° |
| 2026-04-28 21:34 | 12.54001 | -81.78886 | 1567 ft | 148 kts | 59° |
| 2026-04-28 21:34 | 12.54491 | -81.77997 | 1358 ft | 141 kts | 60° |
| 2026-04-28 21:34 | 12.54975 | -81.77131 | 1176 ft | 137 kts | 58° |
| 2026-04-28 21:35 | 12.55445 | -81.76297 | 994 ft | 136 kts | 58° |
| 2026-04-28 21:35 | 12.55921 | -81.75453 | 817 ft | 138 kts | 59° |
| 2026-04-28 21:35 | 12.56391 | -81.74611 | 660 ft | 136 kts | 59° |
| 2026-04-28 21:35 | 12.56852 | -81.73733 | 477 ft | 139 kts | 59° |
| 2026-04-28 21:36 | 12.57337 | -81.72893 | 336 ft | 140 kts | 58° |
| 2026-04-28 21:36 | 12.57825 | -81.72047 | 123 ft | 136 kts | 59° |
| 2026-04-28 21:36 | 12.58281 | -81.71269 | 60 ft | 116 kts | 66° |
| 2026-04-28 21:36 | 12.58596 | -81.70712 | 45 ft | 51 kts | 59° |
| 2026-04-28 21:37 | 12.58699 | -81.70537 | 36 ft | 25 kts | 59° |
| 2026-04-28 21:37 | 12.58716 | -81.70390 | 33 ft | 16 kts | 113° |
| 2026-04-28 21:37 | 12.58717 | -81.70316 | 32 ft | 8 kts | 56° |
| 2026-04-28 21:37 | 12.58741 | -81.70259 | 30 ft | 8 kts | 118° |
| 2026-04-28 21:38 | 12.58719 | -81.70245 | 30 ft | 2 kts | 151° |
| 2026-04-28 21:38 | 12.58712 | -81.70241 | 30 ft | 1 kts | 152° |
| 2026-04-28 21:38 | 12.58696 | -81.70232 | 30 ft | 2 kts | 149° |
| 2026-04-28 21:38 | 12.58686 | -81.70226 | 30 ft | 0 kts | 149° |